Flight Track Log - Related Links

Times and Time Zones

All times are in EDT time to prevent confusion due to time zone crossing. See the JUS196 flight status page for this flight to view local times or setup timezone preferences in your user account.

Time Position Orientation Groundspeed Altitude Reporting Facility
EDT Latitude Longitude Course Direction KTS MPH feet Rate Location/Type
Mon 11:37:00 PM 25.7514 -99.4856 North  Level Estimated
Mon 11:38:00 PM 25.8620 -99.4841 North  Level Estimated
Mon 11:39:00 PM 25.9725 -99.4826 North  Level Estimated
Mon 11:40:00 PM 26.0831 -99.4812 North  Level Estimated
Mon 11:40:00 PM 26.0739 -99.9167 North 481 554 35,000  Level Houston Center
Mon 11:41:00 PM 26.1937 -99.4797 North  Level Estimated
Mon 11:41:01 PM 26.1814 -99.8236 38° Northeast 487 560 35,000  Level Houston Center
Mon 11:42:00 PM 26.3043 -99.4782 North  Level Estimated
Mon 11:42:01 PM 26.2978 -99.7544 28° Northeast 479 551 34,000  Level Houston Center
Mon 11:43:00 PM 26.4149 -99.4768 North  Level Estimated
Mon 11:43:02 PM 26.4053 -99.6864 30° Northeast 451 519 31,500  Level Houston Center
Mon 11:44:00 PM 26.5255 -99.4753 North  Level Estimated
Mon 11:44:02 PM 26.5111 -99.6086 33° Northeast 453 521 28,200  Level Houston Center
Mon 11:45:00 PM 26.6361 -99.4738 North  Level Estimated
Mon 11:45:03 PM 26.6261 -99.5839 11° North 431 496 24,700  Level Houston Center
Mon 11:46:04 PM 26.7614 -99.5789 North 412 474 20,800 -3,521 Descending Houston Center
Mon 11:47:04 PM 26.8681 -99.5783 360° North 398 458 17,600 -3,124 Descending Houston Center
Mon 11:48:05 PM 26.9703 -99.5758 North 383 441 14,500 -2,902 Descending Houston Center
Mon 11:49:06 PM 27.0719 -99.5742 North 373 429 11,700 -2,132 Descending Houston Center
Mon 11:50:06 PM 27.1622 -99.5714 North 351 404 10,200 -1,587 Descending Houston Center
Mon 11:51:07 PM 27.2422 -99.5728 359° North 313 360 8,500 -1,934 Descending Houston Center
Mon 11:52:07 PM 27.3225 -99.5686 North 299 344 6,300 -2,033 Descending Houston Center
Mon 11:53:08 PM 27.4031 -99.5664 North 290 334 4,400 -1,388 Descending Houston Center
Mon 11:54:08 PM 27.4822 -99.5594 North 288 331 3,500 -843 Descending Houston Center
Mon 11:55:09 PM 27.5472 -99.5575 North 261 300 2,700 -645 Descending Houston Center
Mon 11:56:09 PM 27.5989 -99.5447 12° North 229 264 2,200 -496 Descending Houston Center
Mon 11:57:10 PM 27.6097 -99.4986 75° East 187 215 1,700 -446 Descending Houston Center
Mon 11:58:10 PM 27.5978 -99.4631 111° Southeast 150 173 1,300 -496 Descending Houston Center
Mon 11:59:11 PM 27.5617 -99.4614 178° South 137 158 700 -590 Descending Houston Center

Login

Don't have an account? Register now (free) for customized features, flight alerts, and more!